sensor_id;sensor_type;location;lat;lon;timestamp;pressure;altitude;pressure_sealevel;temperature;humidity
79612;BME280;69094;48.154;11.536;2023-08-21T00:01:58;96000.28;;;23.81;54.84
79612;BME280;69094;48.154;11.536;2023-08-21T00:04:24;96005.06;;;23.77;54.59
79612;BME280;69094;48.154;11.536;2023-08-21T00:06:49;96005.03;;;23.70;54.57
79612;BME280;69094;48.154;11.536;2023-08-21T00:09:15;96006.25;;;23.69;54.77
79612;BME280;69094;48.154;11.536;2023-08-21T00:11:40;96003.84;;;23.71;54.08
79612;BME280;69094;48.154;11.536;2023-08-21T00:14:05;96001.47;;;23.62;54.20
79612;BME280;69094;48.154;11.536;2023-08-21T00:16:31;95991.97;;;23.52;54.44
79612;BME280;69094;48.154;11.536;2023-08-21T00:18:57;95995.16;;;23.47;54.71
79612;BME280;69094;48.154;11.536;2023-08-21T00:21:22;95992.00;;;23.27;55.54
79612;BME280;69094;48.154;11.536;2023-08-21T00:23:47;95988.84;;;23.21;56.04
79612;BME280;69094;48.154;11.536;2023-08-21T00:26:13;95994.38;;;23.07;56.90
79612;BME280;69094;48.154;11.536;2023-08-21T00:28:38;95992.00;;;22.98;56.73
79612;BME280;69094;48.154;11.536;2023-08-21T00:31:04;95998.34;;;23.03;56.95
79612;BME280;69094;48.154;11.536;2023-08-21T00:33:31;95997.16;;;23.04;57.03
79612;BME280;69094;48.154;11.536;2023-08-21T00:35:57;95990.78;;;22.96;57.10
79612;BME280;69094;48.154;11.536;2023-08-21T00:38:22;95999.88;;;22.89;57.32
79612;BME280;69094;48.154;11.536;2023-08-21T00:40:48;95996.31;;;22.89;57.73
79612;BME280;69094;48.154;11.536;2023-08-21T00:43:14;95994.34;;;22.89;57.58
79612;BME280;69094;48.154;11.536;2023-08-21T00:45:41;95987.59;;;22.94;57.31
79612;BME280;69094;48.154;11.536;2023-08-21T00:48:08;95984.41;;;22.95;57.90
79612;BME280;69094;48.154;11.536;2023-08-21T00:50:35;95982.44;;;22.92;58.00
79612;BME280;69094;48.154;11.536;2023-08-21T00:53:02;95980.44;;;22.75;58.72
79612;BME280;69094;48.154;11.536;2023-08-21T00:55:29;95972.91;;;22.65;58.93
79612;BME280;69094;48.154;11.536;2023-08-21T00:57:55;95976.88;;;22.67;59.30
79612;BME280;69094;48.154;11.536;2023-08-21T01:00:20;95982.78;;;22.66;59.42
79612;BME280;69094;48.154;11.536;2023-08-21T01:02:47;95972.88;;;22.57;58.79
79612;BME280;69094;48.154;11.536;2023-08-21T01:05:12;95980.44;;;22.64;58.45
79612;BME280;69094;48.154;11.536;2023-08-21T01:07:59;95988.72;;;22.61;58.42
79612;BME280;69094;48.154;11.536;2023-08-21T01:10:34;95984.75;;;22.54;58.85
79612;BME280;69094;48.154;11.536;2023-08-21T01:13:09;95976.81;;;22.46;58.84
79612;BME280;69094;48.154;11.536;2023-08-21T01:15:38;95988.69;;;22.43;59.55
79612;BME280;69094;48.154;11.536;2023-08-21T01:18:05;95991.88;;;22.41;59.34
79612;BME280;69094;48.154;11.536;2023-08-21T01:20:31;95987.88;;;22.35;59.88
79612;BME280;69094;48.154;11.536;2023-08-21T01:23:03;95985.50;;;22.33;59.32
79612;BME280;69094;48.154;11.536;2023-08-21T01:25:29;95995.78;;;22.33;59.55
79612;BME280;69094;48.154;11.536;2023-08-21T01:27:54;95971.59;;;22.23;59.41
79612;BME280;69094;48.154;11.536;2023-08-21T01:30:20;95990.56;;;22.17;59.91
79612;BME280;69094;48.154;11.536;2023-08-21T01:32:59;95989.78;;;22.17;59.83
79612;BME280;69094;48.154;11.536;2023-08-21T01:35:26;95979.44;;;22.10;59.62
79612;BME280;69094;48.154;11.536;2023-08-21T01:37:52;95989.34;;;22.11;59.45
79612;BME280;69094;48.154;11.536;2023-08-21T01:40:24;95989.72;;;22.02;59.93
79612;BME280;69094;48.154;11.536;2023-08-21T01:42:52;95981.41;;;22.06;60.06
79612;BME280;69094;48.154;11.536;2023-08-21T01:45:18;95994.47;;;22.02;60.13
79612;BME280;69094;48.154;11.536;2023-08-21T01:47:43;95988.09;;;21.98;60.17
79612;BME280;69094;48.154;11.536;2023-08-21T01:50:09;95993.31;;;22.06;59.69
79612;BME280;69094;48.154;11.536;2023-08-21T01:52:34;95988.88;;;21.98;60.23
79612;BME280;69094;48.154;11.536;2023-08-21T01:55:00;95988.09;;;21.98;60.59
79612;BME280;69094;48.154;11.536;2023-08-21T01:57:25;95992.09;;;22.11;60.18
79612;BME280;69094;48.154;11.536;2023-08-21T01:59:50;95987.34;;;22.08;59.28
79612;BME280;69094;48.154;11.536;2023-08-21T02:02:16;95985.38;;;22.05;60.39
79612;BME280;69094;48.154;11.536;2023-08-21T02:04:41;95997.66;;;22.11;60.74
79612;BME280;69094;48.154;11.536;2023-08-21T02:07:07;95997.69;;;22.18;60.82
79612;BME280;69094;48.154;11.536;2023-08-21T02:09:33;95992.25;;;22.43;59.68
79612;BME280;69094;48.154;11.536;2023-08-21T02:11:58;95998.16;;;22.27;60.11
79612;BME280;69094;48.154;11.536;2023-08-21T02:14:23;95998.06;;;22.09;60.78
79612;BME280;69094;48.154;11.536;2023-08-21T02:16:49;95996.41;;;21.98;61.19
79612;BME280;69094;48.154;11.536;2023-08-21T02:19:14;95984.88;;;21.88;61.73
79612;BME280;69094;48.154;11.536;2023-08-21T02:21:39;95993.66;;;21.98;61.32
79612;BME280;69094;48.154;11.536;2023-08-21T02:24:05;95988.38;;;21.75;61.97
79612;BME280;69094;48.154;11.536;2023-08-21T02:26:30;95984.78;;;21.67;61.98
79612;BME280;69094;48.154;11.536;2023-08-21T02:28:55;95986.72;;;21.63;62.03
79612;BME280;69094;48.154;11.536;2023-08-21T02:31:22;95993.00;;;21.53;62.79
79612;BME280;69094;48.154;11.536;2023-08-21T02:33:48;95995.78;;;21.56;63.16
79612;BME280;69094;48.154;11.536;2023-08-21T02:36:15;95991.75;;;21.39;63.46
79612;BME280;69094;48.154;11.536;2023-08-21T02:38:40;95993.66;;;21.35;64.09
79612;BME280;69094;48.154;11.536;2023-08-21T02:41:06;95996.44;;;21.39;63.78
79612;BME280;69094;48.154;11.536;2023-08-21T02:43:31;95993.63;;;21.32;64.19
79612;BME280;69094;48.154;11.536;2023-08-21T02:45:56;95988.75;;;21.14;64.63
79612;BME280;69094;48.154;11.536;2023-08-21T02:48:22;95992.38;;;21.22;64.20
79612;BME280;69094;48.154;11.536;2023-08-21T02:50:48;95981.31;;;21.22;64.43
79612;BME280;69094;48.154;11.536;2023-08-21T02:53:13;95993.56;;;21.24;64.49
79612;BME280;69094;48.154;11.536;2023-08-21T02:55:39;95994.44;;;21.36;64.18
79612;BME280;69094;48.154;11.536;2023-08-21T02:58:04;96003.59;;;21.40;64.00
79612;BME280;69094;48.154;11.536;2023-08-21T03:00:29;96001.63;;;21.40;64.15
79612;BME280;69094;48.154;11.536;2023-08-21T03:02:55;96002.31;;;21.34;64.50
79612;BME280;69094;48.154;11.536;2023-08-21T03:05:20;96010.63;;;21.34;64.45
79612;BME280;69094;48.154;11.536;2023-08-21T03:07:45;96006.16;;;21.18;65.47
79612;BME280;69094;48.154;11.536;2023-08-21T03:10:11;95997.44;;;21.13;65.74
79612;BME280;69094;48.154;11.536;2023-08-21T03:12:36;96003.03;;;21.20;65.87
79612;BME280;69094;48.154;11.536;2023-08-21T03:15:02;96007.72;;;21.12;66.03
79612;BME280;69094;48.154;11.536;2023-08-21T03:17:28;96004.53;;;21.10;66.35
79612;BME280;69094;48.154;11.536;2023-08-21T03:19:53;96009.41;;;21.31;65.61
79612;BME280;69094;48.154;11.536;2023-08-21T03:22:18;96007.16;;;21.44;65.38
79612;BME280;69094;48.154;11.536;2023-08-21T03:24:44;96008.06;;;21.59;64.80
79612;BME280;69094;48.154;11.536;2023-08-21T03:27:09;96011.91;;;21.43;65.26
79612;BME280;69094;48.154;11.536;2023-08-21T03:29:34;96022.09;;;21.32;65.70
79612;BME280;69094;48.154;11.536;2023-08-21T03:32:00;96016.91;;;21.27;66.10
79612;BME280;69094;48.154;11.536;2023-08-21T03:34:25;96019.56;;;21.13;66.94
79612;BME280;69094;48.154;11.536;2023-08-21T03:36:51;96017.00;;;20.90;68.04
79612;BME280;69094;48.154;11.536;2023-08-21T03:39:16;96016.94;;;20.82;68.02
79612;BME280;69094;48.154;11.536;2023-08-21T03:41:42;96022.63;;;21.00;67.51
79612;BME280;69094;48.154;11.536;2023-08-21T03:44:07;96029.84;;;21.12;66.76
79612;BME280;69094;48.154;11.536;2023-08-21T03:46:32;96027.56;;;21.25;66.64
79612;BME280;69094;48.154;11.536;2023-08-21T03:48:58;96022.19;;;20.98;67.93
79612;BME280;69094;48.154;11.536;2023-08-21T03:51:23;96024.53;;;20.96;67.60
79612;BME280;69094;48.154;11.536;2023-08-21T03:53:49;96024.75;;;20.77;68.50
79612;BME280;69094;48.154;11.536;2023-08-21T03:56:15;96030.28;;;20.77;68.76
79612;BME280;69094;48.154;11.536;2023-08-21T03:58:40;96028.53;;;20.99;67.34
79612;BME280;69094;48.154;11.536;2023-08-21T04:01:06;96030.56;;;21.05;66.99
79612;BME280;69094;48.154;11.536;2023-08-21T04:03:31;96032.47;;;20.98;67.30
79612;BME280;69094;48.154;11.536;2023-08-21T04:05:56;96032.81;;;20.93;66.98
79612;BME280;69094;48.154;11.536;2023-08-21T04:08:22;96031.53;;;20.83;66.99
79612;BME280;69094;48.154;11.536;2023-08-21T04:10:48;96030.59;;;20.68;67.15
79612;BME280;69094;48.154;11.536;2023-08-21T04:13:13;96032.50;;;20.60;67.34
79612;BME280;69094;48.154;11.536;2023-08-21T04:15:39;96028.91;;;20.56;67.69
79612;BME280;69094;48.154;11.536;2023-08-21T04:18:09;96031.59;;;20.53;67.53
79612;BME280;69094;48.154;11.536;2023-08-21T04:20:34;96025.34;;;20.56;67.75
79612;BME280;69094;48.154;11.536;2023-08-21T04:22:59;96019.69;;;20.49;68.04
79612;BME280;69094;48.154;11.536;2023-08-21T04:25:25;96030.81;;;20.52;68.63
79612;BME280;69094;48.154;11.536;2023-08-21T04:27:50;96030.41;;;20.54;68.04
79612;BME280;69094;48.154;11.536;2023-08-21T04:30:15;96021.78;;;20.55;67.86
79612;BME280;69094;48.154;11.536;2023-08-21T04:32:41;96029.69;;;20.57;68.19
79612;BME280;69094;48.154;11.536;2023-08-21T04:35:06;96019.84;;;20.59;68.12
79612;BME280;69094;48.154;11.536;2023-08-21T04:37:33;96022.34;;;20.72;67.58
79612;BME280;69094;48.154;11.536;2023-08-21T04:39:59;96031.47;;;20.76;67.41
79612;BME280;69094;48.154;11.536;2023-08-21T04:42:24;96035.44;;;20.75;68.00
79612;BME280;69094;48.154;11.536;2023-08-21T04:44:49;96030.34;;;20.84;67.45
79612;BME280;69094;48.154;11.536;2023-08-21T04:47:23;96025.28;;;20.90;67.25
79612;BME280;69094;48.154;11.536;2023-08-21T04:49:50;96035.16;;;20.87;67.44
79612;BME280;69094;48.154;11.536;2023-08-21T04:52:15;96037.34;;;20.71;67.81
79612;BME280;69094;48.154;11.536;2023-08-21T04:54:41;96045.19;;;20.65;68.26
79612;BME280;69094;48.154;11.536;2023-08-21T04:57:06;96036.28;;;20.49;68.91
79612;BME280;69094;48.154;11.536;2023-08-21T04:59:31;96047.91;;;20.61;68.73
79612;BME280;69094;48.154;11.536;2023-08-21T05:01:57;96047.13;;;20.61;68.56
79612;BME280;69094;48.154;11.536;2023-08-21T05:04:22;96034.59;;;20.71;68.13
79612;BME280;69094;48.154;11.536;2023-08-21T05:06:47;96042.88;;;20.71;67.89
79612;BME280;69094;48.154;11.536;2023-08-21T05:09:13;96048.84;;;20.76;68.16
79612;BME280;69094;48.154;11.536;2023-08-21T05:11:38;96046.94;;;20.80;67.67
79612;BME280;69094;48.154;11.536;2023-08-21T05:14:03;96040.63;;;20.83;67.87
79612;BME280;69094;48.154;11.536;2023-08-21T05:16:29;96042.25;;;20.88;67.80
79612;BME280;69094;48.154;11.536;2023-08-21T05:18:54;96047.88;;;20.99;67.51
79612;BME280;69094;48.154;11.536;2023-08-21T05:21:19;96048.72;;;20.99;67.86
79612;BME280;69094;48.154;11.536;2023-08-21T05:23:45;96057.47;;;21.08;67.47
79612;BME280;69094;48.154;11.536;2023-08-21T05:26:10;96052.00;;;21.16;67.69
79612;BME280;69094;48.154;11.536;2023-08-21T05:28:36;96062.41;;;21.29;67.40
79612;BME280;69094;48.154;11.536;2023-08-21T05:31:01;96051.00;;;21.38;66.89
79612;BME280;69094;48.154;11.536;2023-08-21T05:33:26;96049.88;;;21.39;66.71
79612;BME280;69094;48.154;11.536;2023-08-21T05:35:52;96055.06;;;21.48;65.94
79612;BME280;69094;48.154;11.536;2023-08-21T05:38:18;96059.09;;;21.54;65.27
79612;BME280;69094;48.154;11.536;2023-08-21T05:40:44;96044.41;;;21.50;64.56
79612;BME280;69094;48.154;11.536;2023-08-21T05:43:09;96055.13;;;21.59;64.91
79612;BME280;69094;48.154;11.536;2023-08-21T05:45:35;96058.00;;;21.69;64.63
79612;BME280;69094;48.154;11.536;2023-08-21T05:48:00;96067.63;;;21.86;64.28
79612;BME280;69094;48.154;11.536;2023-08-21T05:50:25;96071.22;;;21.94;62.92
79612;BME280;69094;48.154;11.536;2023-08-21T05:52:51;96064.09;;;21.97;63.02
79612;BME280;69094;48.154;11.536;2023-08-21T05:55:17;96069.69;;;22.04;63.85
79612;BME280;69094;48.154;11.536;2023-08-21T05:57:43;96069.72;;;22.11;62.32
79612;BME280;69094;48.154;11.536;2023-08-21T06:00:09;96072.22;;;22.27;62.38
79612;BME280;69094;48.154;11.536;2023-08-21T06:02:34;96074.22;;;22.33;61.48
79612;BME280;69094;48.154;11.536;2023-08-21T06:04:59;96071.91;;;22.46;60.93
79612;BME280;69094;48.154;11.536;2023-08-21T06:07:25;96073.50;;;22.51;60.72
79612;BME280;69094;48.154;11.536;2023-08-21T06:09:50;96071.50;;;22.44;60.64
79612;BME280;69094;48.154;11.536;2023-08-21T06:12:18;96071.91;;;22.50;60.11
79612;BME280;69094;48.154;11.536;2023-08-21T06:14:44;96073.50;;;22.58;60.15
79612;BME280;69094;48.154;11.536;2023-08-21T06:17:09;96079.91;;;22.69;59.77
79612;BME280;69094;48.154;11.536;2023-08-21T06:19:35;96079.97;;;22.84;59.43
79612;BME280;69094;48.154;11.536;2023-08-21T06:22:00;96076.00;;;22.95;58.16
79612;BME280;69094;48.154;11.536;2023-08-21T06:24:26;96084.41;;;23.17;58.58
79612;BME280;69094;48.154;11.536;2023-08-21T06:26:51;96079.28;;;23.44;57.70
79612;BME280;69094;48.154;11.536;2023-08-21T06:29:17;96072.13;;;23.57;56.92
79612;BME280;69094;48.154;11.536;2023-08-21T06:31:43;96088.03;;;23.78;55.76
79612;BME280;69094;48.154;11.536;2023-08-21T06:34:09;96080.44;;;24.11;55.63
79612;BME280;69094;48.154;11.536;2023-08-21T06:36:34;96083.13;;;24.50;55.10
79612;BME280;69094;48.154;11.536;2023-08-21T06:38:59;96078.22;;;24.80;53.43
79612;BME280;69094;48.154;11.536;2023-08-21T06:41:25;96082.91;;;24.93;52.70
79612;BME280;69094;48.154;11.536;2023-08-21T06:43:50;96088.34;;;25.19;52.03
79612;BME280;69094;48.154;11.536;2023-08-21T06:46:16;96088.34;;;25.22;51.66
79612;BME280;69094;48.154;11.536;2023-08-21T06:48:41;96078.13;;;24.98;52.55
79612;BME280;69094;48.154;11.536;2023-08-21T06:51:07;96091.81;;;25.37;52.59
79612;BME280;69094;48.154;11.536;2023-08-21T06:53:32;96084.09;;;25.59;51.31
79612;BME280;69094;48.154;11.536;2023-08-21T06:55:57;96095.16;;;25.66;51.57
79612;BME280;69094;48.154;11.536;2023-08-21T06:58:23;96084.75;;;25.74;51.03
79612;BME280;69094;48.154;11.536;2023-08-21T07:00:48;96087.03;;;26.28;50.05
79612;BME280;69094;48.154;11.536;2023-08-21T07:03:14;96093.16;;;26.53;48.67
79612;BME280;69094;48.154;11.536;2023-08-21T07:05:39;96094.22;;;26.63;48.15
79612;BME280;69094;48.154;11.536;2023-08-21T07:08:05;96095.63;;;27.09;47.00
79612;BME280;69094;48.154;11.536;2023-08-21T07:10:36;96096.31;;;27.17;46.40
79612;BME280;69094;48.154;11.536;2023-08-21T07:13:02;96091.53;;;27.17;46.38
79612;BME280;69094;48.154;11.536;2023-08-21T07:15:29;96089.06;;;27.50;46.18
79612;BME280;69094;48.154;11.536;2023-08-21T07:17:54;96092.09;;;28.10;45.06
79612;BME280;69094;48.154;11.536;2023-08-21T07:20:21;96094.25;;;28.22;43.68
79612;BME280;69094;48.154;11.536;2023-08-21T07:22:46;96097.16;;;28.39;44.10
79612;BME280;69094;48.154;11.536;2023-08-21T07:25:12;96102.88;;;28.31;43.19
79612;BME280;69094;48.154;11.536;2023-08-21T07:27:37;96108.66;;;28.64;43.20
79612;BME280;69094;48.154;11.536;2023-08-21T07:30:03;96103.16;;;28.61;42.87
79612;BME280;69094;48.154;11.536;2023-08-21T07:32:28;96096.38;;;29.18;42.39
79612;BME280;69094;48.154;11.536;2023-08-21T07:34:53;96095.19;;;29.52;41.10
79612;BME280;69094;48.154;11.536;2023-08-21T07:37:19;96097.75;;;29.95;40.24
79612;BME280;69094;48.154;11.536;2023-08-21T07:39:45;96100.63;;;29.42;40.47
79612;BME280;69094;48.154;11.536;2023-08-21T07:42:11;96105.66;;;29.84;39.83
79612;BME280;69094;48.154;11.536;2023-08-21T07:44:41;96098.94;;;29.45;40.57
79612;BME280;69094;48.154;11.536;2023-08-21T07:47:06;96098.53;;;30.58;37.91
79612;BME280;69094;48.154;11.536;2023-08-21T07:49:32;96101.19;;;29.87;39.22
79612;BME280;69094;48.154;11.536;2023-08-21T07:51:58;96094.75;;;30.19;38.37
79612;BME280;69094;48.154;11.536;2023-08-21T07:54:23;96108.22;;;30.99;36.96
79612;BME280;69094;48.154;11.536;2023-08-21T07:56:49;96100.94;;;31.14;36.23
79612;BME280;69094;48.154;11.536;2023-08-21T07:59:15;96103.03;;;30.84;37.48
79612;BME280;69094;48.154;11.536;2023-08-21T08:01:40;96104.88;;;31.17;36.03
79612;BME280;69094;48.154;11.536;2023-08-21T08:04:06;96103.00;;;31.52;35.78
79612;BME280;69094;48.154;11.536;2023-08-21T08:06:31;96101.16;;;32.09;34.63
79612;BME280;69094;48.154;11.536;2023-08-21T08:08:57;96092.28;;;31.21;35.90
79612;BME280;69094;48.154;11.536;2023-08-21T08:11:23;96103.13;;;31.61;36.31
79612;BME280;69094;48.154;11.536;2023-08-21T08:13:48;96103.88;;;32.13;34.47
79612;BME280;69094;48.154;11.536;2023-08-21T08:16:13;96097.59;;;32.88;33.63
79612;BME280;69094;48.154;11.536;2023-08-21T08:18:39;96112.06;;;32.20;34.89
79612;BME280;69094;48.154;11.536;2023-08-21T08:21:04;96115.03;;;32.04;34.17
79612;BME280;69094;48.154;11.536;2023-08-21T08:23:29;96101.91;;;32.79;33.35
79612;BME280;69094;48.154;11.536;2023-08-21T08:25:55;96101.66;;;32.87;32.20
79612;BME280;69094;48.154;11.536;2023-08-21T08:28:20;96111.22;;;33.74;30.25
79612;BME280;69094;48.154;11.536;2023-08-21T08:30:46;96101.91;;;33.01;32.33
79612;BME280;69094;48.154;11.536;2023-08-21T08:33:11;96104.53;;;33.18;31.87
79612;BME280;69094;48.154;11.536;2023-08-21T08:35:36;96104.56;;;33.99;30.10
79612;BME280;69094;48.154;11.536;2023-08-21T08:38:02;96102.75;;;33.74;30.24
79612;BME280;69094;48.154;11.536;2023-08-21T08:40:27;96100.25;;;33.35;31.15
79612;BME280;69094;48.154;11.536;2023-08-21T08:42:53;96101.41;;;33.87;30.13
79612;BME280;69094;48.154;11.536;2023-08-21T08:45:32;96102.97;;;33.88;29.80
79612;BME280;69094;48.154;11.536;2023-08-21T08:47:59;96101.53;;;33.12;30.98
79612;BME280;69094;48.154;11.536;2023-08-21T08:50:28;96103.09;;;33.76;31.42
79612;BME280;69094;48.154;11.536;2023-08-21T08:52:55;96104.66;;;34.63;27.82
79612;BME280;69094;48.154;11.536;2023-08-21T08:55:21;96106.53;;;34.29;28.66
79612;BME280;69094;48.154;11.536;2023-08-21T08:57:46;96109.53;;;34.63;28.70
79612;BME280;69094;48.154;11.536;2023-08-21T09:00:12;96115.94;;;34.45;28.29
79612;BME280;69094;48.154;11.536;2023-08-21T09:02:37;96100.75;;;34.51;28.20
79612;BME280;69094;48.154;11.536;2023-08-21T09:05:03;96112.19;;;34.48;26.71
79612;BME280;69094;48.154;11.536;2023-08-21T09:07:29;96101.84;;;34.82;26.26
79612;BME280;69094;48.154;11.536;2023-08-21T09:09:55;96112.06;;;34.88;27.34
79612;BME280;69094;48.154;11.536;2023-08-21T09:12:20;96097.34;;;35.36;26.56
79612;BME280;69094;48.154;11.536;2023-08-21T09:14:46;96113.72;;;36.08;25.56
79612;BME280;69094;48.154;11.536;2023-08-21T09:17:12;96099.78;;;35.10;27.38
79612;BME280;69094;48.154;11.536;2023-08-21T09:19:38;96102.03;;;35.39;25.75
79612;BME280;69094;48.154;11.536;2023-08-21T09:22:17;96103.47;;;35.34;26.78
79612;BME280;69094;48.154;11.536;2023-08-21T09:25:06;96109.44;;;35.79;25.18
79612;BME280;69094;48.154;11.536;2023-08-21T09:27:33;96107.28;;;35.22;26.59
79612;BME280;69094;48.154;11.536;2023-08-21T09:29:59;96101.72;;;35.46;25.97
79612;BME280;69094;48.154;11.536;2023-08-21T09:32:25;96110.25;;;36.13;25.18
79612;BME280;69094;48.154;11.536;2023-08-21T09:34:51;96100.38;;;35.99;24.74
79612;BME280;69094;48.154;11.536;2023-08-21T09:37:16;96108.19;;;35.80;24.87
79612;BME280;69094;48.154;11.536;2023-08-21T09:39:42;96105.56;;;36.00;23.40
79612;BME280;69094;48.154;11.536;2023-08-21T09:42:08;96099.28;;;36.44;22.86
79612;BME280;69094;48.154;11.536;2023-08-21T09:44:40;96096.63;;;36.26;23.61
79612;BME280;69094;48.154;11.536;2023-08-21T09:47:11;96098.78;;;36.31;23.70
79612;BME280;69094;48.154;11.536;2023-08-21T09:49:38;96097.09;;;36.88;24.44
79612;BME280;69094;48.154;11.536;2023-08-21T09:52:08;96092.91;;;37.57;22.94
79612;BME280;69094;48.154;11.536;2023-08-21T09:54:35;96091.50;;;36.93;24.10
79612;BME280;69094;48.154;11.536;2023-08-21T09:57:03;96082.22;;;36.54;23.94
79612;BME280;69094;48.154;11.536;2023-08-21T09:59:30;96090.34;;;37.00;23.39
79612;BME280;69094;48.154;11.536;2023-08-21T10:01:58;96096.78;;;36.85;23.63
79612;BME280;69094;48.154;11.536;2023-08-21T10:04:25;96092.53;;;36.42;24.95
79612;BME280;69094;48.154;11.536;2023-08-21T10:06:51;96089.19;;;36.29;25.22
79612;BME280;69094;48.154;11.536;2023-08-21T10:09:19;96079.97;;;36.43;25.49
79612;BME280;69094;48.154;11.536;2023-08-21T10:11:45;96080.03;;;36.34;25.78
79612;BME280;69094;48.154;11.536;2023-08-21T10:14:12;96085.34;;;36.95;25.33
79612;BME280;69094;48.154;11.536;2023-08-21T10:16:38;96087.59;;;36.91;24.66
79612;BME280;69094;48.154;11.536;2023-08-21T10:19:04;96079.41;;;37.22;23.77
79612;BME280;69094;48.154;11.536;2023-08-21T10:21:36;96082.63;;;37.45;23.78
79612;BME280;69094;48.154;11.536;2023-08-21T10:24:04;96075.53;;;36.42;24.03
79612;BME280;69094;48.154;11.536;2023-08-21T10:26:30;96083.16;;;36.36;24.03
79612;BME280;69094;48.154;11.536;2023-08-21T10:29:02;96076.66;;;37.13;23.75
79612;BME280;69094;48.154;11.536;2023-08-21T10:31:35;96079.22;;;37.11;21.99
79612;BME280;69094;48.154;11.536;2023-08-21T10:34:03;96076.31;;;37.70;20.97
79612;BME280;69094;48.154;11.536;2023-08-21T10:39:13;96078.47;;;36.86;22.39
79612;BME280;69094;48.154;11.536;2023-08-21T10:49:47;96068.53;;;37.21;24.39
79612;BME280;69094;48.154;11.536;2023-08-21T10:52:15;96069.28;;;37.51;23.22
79612;BME280;69094;48.154;11.536;2023-08-21T10:54:52;96075.09;;;37.27;24.08
79612;BME280;69094;48.154;11.536;2023-08-21T10:57:18;96073.59;;;37.61;23.51
79612;BME280;69094;48.154;11.536;2023-08-21T11:02:18;96071.75;;;37.58;23.26
79612;BME280;69094;48.154;11.536;2023-08-21T11:04:44;96072.88;;;37.66;23.55
79612;BME280;69094;48.154;11.536;2023-08-21T11:07:10;96066.28;;;37.40;23.81
79612;BME280;69094;48.154;11.536;2023-08-21T11:09:39;96073.03;;;37.27;23.82
79612;BME280;69094;48.154;11.536;2023-08-21T11:12:12;96072.00;;;38.10;22.75
79612;BME280;69094;48.154;11.536;2023-08-21T11:14:38;96076.31;;;38.67;21.75
79612;BME280;69094;48.154;11.536;2023-08-21T11:17:04;96078.63;;;38.89;21.86
79612;BME280;69094;48.154;11.536;2023-08-21T11:19:33;96072.28;;;38.74;21.95
79612;BME280;69094;48.154;11.536;2023-08-21T11:22:00;96072.03;;;38.77;22.21
79612;BME280;69094;48.154;11.536;2023-08-21T11:27:04;96075.53;;;38.26;22.87
79612;BME280;69094;48.154;11.536;2023-08-21T11:29:35;96077.31;;;39.11;22.57
79612;BME280;69094;48.154;11.536;2023-08-21T11:32:02;96078.19;;;39.49;21.75
79612;BME280;69094;48.154;11.536;2023-08-21T11:34:28;96076.81;;;39.38;22.13
79612;BME280;69094;48.154;11.536;2023-08-21T11:36:54;96075.69;;;38.37;22.96
79612;BME280;69094;48.154;11.536;2023-08-21T11:39:20;96060.78;;;38.22;22.76
79612;BME280;69094;48.154;11.536;2023-08-21T11:41:56;96071.22;;;38.51;23.28
79612;BME280;69094;48.154;11.536;2023-08-21T11:44:22;96073.09;;;38.54;23.24
79612;BME280;69094;48.154;11.536;2023-08-21T11:46:50;96071.75;;;39.28;22.98
79612;BME280;69094;48.154;11.536;2023-08-21T11:49:17;96066.34;;;38.51;22.40
79612;BME280;69094;48.154;11.536;2023-08-21T11:51:45;96063.31;;;38.40;23.21
79612;BME280;69094;48.154;11.536;2023-08-21T11:54:10;96061.47;;;38.37;22.59
79612;BME280;69094;48.154;11.536;2023-08-21T11:56:38;96067.13;;;38.98;22.57
79612;BME280;69094;48.154;11.536;2023-08-21T11:59:04;96058.81;;;39.27;22.01
79612;BME280;69094;48.154;11.536;2023-08-21T12:01:32;96062.16;;;39.25;21.32
79612;BME280;69094;48.154;11.536;2023-08-21T12:03:58;96064.75;;;38.97;22.06
79612;BME280;69094;48.154;11.536;2023-08-21T12:06:24;96064.06;;;39.08;20.92
79612;BME280;69094;48.154;11.536;2023-08-21T12:08:57;96057.44;;;38.90;21.21
79612;BME280;69094;48.154;11.536;2023-08-21T12:11:23;96056.81;;;40.08;20.27
79612;BME280;69094;48.154;11.536;2023-08-21T12:13:50;96048.13;;;39.48;20.45
79612;BME280;69094;48.154;11.536;2023-08-21T12:16:16;96048.59;;;38.88;20.77
79612;BME280;69094;48.154;11.536;2023-08-21T12:18:42;96055.38;;;38.65;21.11
79612;BME280;69094;48.154;11.536;2023-08-21T12:21:07;96041.00;;;38.74;21.34
79612;BME280;69094;48.154;11.536;2023-08-21T12:23:33;96045.91;;;38.53;22.02
79612;BME280;69094;48.154;11.536;2023-08-21T12:25:59;96044.63;;;39.01;21.10
79612;BME280;69094;48.154;11.536;2023-08-21T12:28:25;96035.16;;;37.81;21.88
79612;BME280;69094;48.154;11.536;2023-08-21T12:30:50;96039.63;;;38.02;22.62
79612;BME280;69094;48.154;11.536;2023-08-21T12:33:15;96036.44;;;38.88;21.09
79612;BME280;69094;48.154;11.536;2023-08-21T12:35:41;96039.03;;;38.39;22.38
79612;BME280;69094;48.154;11.536;2023-08-21T12:38:10;96030.63;;;39.29;20.59
79612;BME280;69094;48.154;11.536;2023-08-21T12:40:37;96033.97;;;38.95;20.80
79612;BME280;69094;48.154;11.536;2023-08-21T12:43:03;96033.16;;;39.21;20.11
79612;BME280;69094;48.154;11.536;2023-08-21T12:45:28;96032.47;;;39.00;20.83
79612;BME280;69094;48.154;11.536;2023-08-21T12:47:53;96023.34;;;38.70;21.12
79612;BME280;69094;48.154;11.536;2023-08-21T12:50:19;96019.56;;;38.78;20.46
79612;BME280;69094;48.154;11.536;2023-08-21T12:52:44;96019.22;;;38.71;19.82
79612;BME280;69094;48.154;11.536;2023-08-21T12:55:10;96019.91;;;38.86;20.67
79612;BME280;69094;48.154;11.536;2023-08-21T12:57:35;96017.16;;;38.97;20.38
79612;BME280;69094;48.154;11.536;2023-08-21T13:00:00;96009.88;;;39.23;20.79
79612;BME280;69094;48.154;11.536;2023-08-21T13:02:26;96013.00;;;38.67;21.47